KOOA/OOA METAR and TAF weather

Enter ICAO airport designator
Station Type Date Time Source
KOOA METAR 2020/01/21 15:35 UTC NOAA

KOOA 211535Z AUTO 00000KT 7SM CLR M14/M15 A3058 RMK AO2 T11371150


Station Type Date Time Source
KOOA Decoded METAR 2020/01/21 15:35 UTC NOAA

Oskaloosa, Oskaloosa Municipal Airport, IA, United States (KOOA) 41-13-34N 092-29-37W
Jan 21, 2020 - 10:35 AM EST / 2020.01.21 1535 UTC
Wind: Calm:0
Visibility: 7 mile(s):0
Sky conditions: clear
Temperature: 7.3 F (-13.7 C)
Dew Point: 5.0 F (-15.0 C)
Relative Humidity: 89%
Pressure (altimeter): 30.58 in. Hg (1035 hPa)
ob: KOOA 211535Z AUTO 00000KT 7SM CLR M14/M15 A3058 RMK AO2 T11371150
cycle: 15

Station Type Date Time Source
KOOA TAF UTC NOAA

Error!

Example: see airport list